sensor_id;sensor_type;location;lat;lon;timestamp;pressure;altitude;pressure_sealevel;temperature;humidity
47530;BME280;33272;51.922;7.730;2023-05-29T00:00:37;145570.84;;;12.38;96.78
47530;BME280;33272;51.922;7.730;2023-05-29T00:03:04;145561.97;;;12.35;96.88
47530;BME280;33272;51.922;7.730;2023-05-29T00:05:32;145561.97;;;12.35;96.86
47530;BME280;33272;51.922;7.730;2023-05-29T00:07:59;145546.75;;;12.28;96.37
47530;BME280;33272;51.922;7.730;2023-05-29T00:10:26;145536.59;;;12.24;96.63
47530;BME280;33272;51.922;7.730;2023-05-29T00:12:53;145521.38;;;12.18;96.67
47530;BME280;33272;51.922;7.730;2023-05-29T00:15:21;145511.22;;;12.14;96.93
47530;BME280;33272;51.922;7.730;2023-05-29T00:17:48;145502.34;;;12.11;96.98
47530;BME280;33272;51.922;7.730;2023-05-29T00:20:16;145490.91;;;12.06;96.89
47530;BME280;33272;51.922;7.730;2023-05-29T00:22:45;145483.28;;;12.03;97.04
47530;BME280;33272;51.922;7.730;2023-05-29T00:25:12;145470.59;;;11.98;97.29
47530;BME280;33272;51.922;7.730;2023-05-29T00:27:39;145460.44;;;11.94;97.32
47530;BME280;33272;51.922;7.730;2023-05-29T00:30:07;145454.09;;;11.91;97.64
47530;BME280;33272;51.922;7.730;2023-05-29T00:32:35;145441.44;;;11.86;97.83
47530;BME280;33272;51.922;7.730;2023-05-29T00:35:02;145433.78;;;11.83;98.09
47530;BME280;33272;51.922;7.730;2023-05-29T00:37:29;145423.59;;;11.79;98.26
47530;BME280;33272;51.922;7.730;2023-05-29T00:39:57;145416.03;;;11.76;98.42
47530;BME280;33272;51.922;7.730;2023-05-29T00:42:24;145404.59;;;11.71;99.10
47530;BME280;33272;51.922;7.730;2023-05-29T00:44:51;145399.50;;;11.69;99.36
47530;BME280;33272;51.922;7.730;2023-05-29T00:47:18;145390.63;;;11.66;100.00
47530;BME280;33272;51.922;7.730;2023-05-29T00:49:45;145381.75;;;11.62;99.92
47530;BME280;33272;51.922;7.730;2023-05-29T00:52:12;145367.78;;;11.56;100.00
47530;BME280;33272;51.922;7.730;2023-05-29T00:54:43;145364.00;;;11.55;100.00
47530;BME280;33272;51.922;7.730;2023-05-29T00:57:13;145358.91;;;11.53;100.00
47530;BME280;33272;51.922;7.730;2023-05-29T00:59:41;145351.28;;;11.50;100.00
47530;BME280;33272;51.922;7.730;2023-05-29T01:02:09;145344.94;;;11.47;100.00
47530;BME280;33272;51.922;7.730;2023-05-29T01:04:36;145336.06;;;11.44;100.00
47530;BME280;33272;51.922;7.730;2023-05-29T01:07:04;145331.03;;;11.42;100.00
47530;BME280;33272;51.922;7.730;2023-05-29T01:09:32;145320.84;;;11.37;100.00
47530;BME280;33272;51.922;7.730;2023-05-29T01:12:23;145315.81;;;11.35;100.00
47530;BME280;33272;51.922;7.730;2023-05-29T01:15:21;145299.31;;;11.29;100.00
47530;BME280;33272;51.922;7.730;2023-05-29T01:18:19;145286.63;;;11.24;100.00
47530;BME280;33272;51.922;7.730;2023-05-29T01:21:06;145279.03;;;11.21;100.00
47530;BME280;33272;51.922;7.730;2023-05-29T01:24:03;145265.06;;;11.15;100.00
47530;BME280;33272;51.922;7.730;2023-05-29T01:26:49;145254.94;;;11.11;100.00
47530;BME280;33272;51.922;7.730;2023-05-29T01:29:21;145248.59;;;11.08;100.00
47530;BME280;33272;51.922;7.730;2023-05-29T01:31:50;145237.19;;;11.04;100.00
47530;BME280;33272;51.922;7.730;2023-05-29T01:34:18;145228.31;;;11.00;100.00
47530;BME280;33272;51.922;7.730;2023-05-29T01:36:45;145221.97;;;10.98;100.00
47530;BME280;33272;51.922;7.730;2023-05-29T01:39:13;145219.41;;;10.97;100.00
47530;BME280;33272;51.922;7.730;2023-05-29T01:41:43;145211.78;;;10.94;100.00
47530;BME280;33272;51.922;7.730;2023-05-29T01:44:11;145202.94;;;10.90;100.00
47530;BME280;33272;51.922;7.730;2023-05-29T01:46:39;145197.88;;;10.88;100.00
47530;BME280;33272;51.922;7.730;2023-05-29T01:49:07;145187.72;;;10.84;100.00
47530;BME280;33272;51.922;7.730;2023-05-29T01:51:35;145181.41;;;10.81;100.00
47530;BME280;33272;51.922;7.730;2023-05-29T01:54:03;145181.41;;;10.81;100.00
47530;BME280;33272;51.922;7.730;2023-05-29T01:56:31;145180.09;;;10.81;100.00
47530;BME280;33272;51.922;7.730;2023-05-29T01:59:02;145171.25;;;10.77;100.00
47530;BME280;33272;51.922;7.730;2023-05-29T02:01:30;145161.13;;;10.73;100.00
47530;BME280;33272;51.922;7.730;2023-05-29T02:03:57;145162.38;;;10.74;100.00
47530;BME280;33272;51.922;7.730;2023-05-29T02:06:24;145156.03;;;10.71;100.00
47530;BME280;33272;51.922;7.730;2023-05-29T02:08:51;145158.59;;;10.72;100.00
47530;BME280;33272;51.922;7.730;2023-05-29T02:11:18;145156.03;;;10.71;100.00
47530;BME280;33272;51.922;7.730;2023-05-29T02:13:46;145156.03;;;10.71;100.00
47530;BME280;33272;51.922;7.730;2023-05-29T02:16:14;145157.28;;;10.72;100.00
47530;BME280;33272;51.922;7.730;2023-05-29T02:18:43;145151.00;;;10.69;100.00
47530;BME280;33272;51.922;7.730;2023-05-29T02:21:10;145144.63;;;10.66;100.00
47530;BME280;33272;51.922;7.730;2023-05-29T02:23:37;145139.56;;;10.64;100.00
47530;BME280;33272;51.922;7.730;2023-05-29T02:26:04;145128.16;;;10.60;100.00
47530;BME280;33272;51.922;7.730;2023-05-29T02:28:31;145124.34;;;10.58;100.00
47530;BME280;33272;51.922;7.730;2023-05-29T02:30:58;145118.00;;;10.56;100.00
47530;BME280;33272;51.922;7.730;2023-05-29T02:33:26;145116.72;;;10.55;100.00
47530;BME280;33272;51.922;7.730;2023-05-29T02:35:53;145120.56;;;10.57;100.00
47530;BME280;33272;51.922;7.730;2023-05-29T02:38:20;145123.09;;;10.58;100.00
47530;BME280;33272;51.922;7.730;2023-05-29T02:40:47;145125.59;;;10.59;100.00
47530;BME280;33272;51.922;7.730;2023-05-29T02:43:14;145131.94;;;10.61;100.00
47530;BME280;33272;51.922;7.730;2023-05-29T02:45:41;145143.38;;;10.66;100.00
47530;BME280;33272;51.922;7.730;2023-05-29T02:48:08;145156.03;;;10.71;100.00
47530;BME280;33272;51.922;7.730;2023-05-29T02:50:37;145169.97;;;10.77;100.00
47530;BME280;33272;51.922;7.730;2023-05-29T02:53:03;145180.09;;;10.81;100.00
47530;BME280;33272;51.922;7.730;2023-05-29T02:55:31;145191.53;;;10.85;100.00
47530;BME280;33272;51.922;7.730;2023-05-29T02:58:01;145205.50;;;10.91;100.00
47530;BME280;33272;51.922;7.730;2023-05-29T03:00:29;145209.28;;;10.93;100.00
47530;BME280;33272;51.922;7.730;2023-05-29T03:02:56;145216.88;;;10.96;100.00
47530;BME280;33272;51.922;7.730;2023-05-29T03:05:23;145219.41;;;10.97;100.00
47530;BME280;33272;51.922;7.730;2023-05-29T03:07:51;145225.75;;;10.99;100.00
47530;BME280;33272;51.922;7.730;2023-05-29T03:10:18;145228.31;;;11.00;100.00
47530;BME280;33272;51.922;7.730;2023-05-29T03:12:46;145230.84;;;11.01;100.00
47530;BME280;33272;51.922;7.730;2023-05-29T03:15:15;145237.19;;;11.04;100.00
47530;BME280;33272;51.922;7.730;2023-05-29T03:17:42;145228.31;;;11.00;100.00
47530;BME280;33272;51.922;7.730;2023-05-29T03:20:10;145228.31;;;11.00;100.00
47530;BME280;33272;51.922;7.730;2023-05-29T03:22:37;145220.72;;;10.97;100.00
47530;BME280;33272;51.922;7.730;2023-05-29T03:25:07;145232.09;;;11.02;100.00
47530;BME280;33272;51.922;7.730;2023-05-29T03:27:34;145238.44;;;11.04;100.00
47530;BME280;33272;51.922;7.730;2023-05-29T03:30:01;145244.81;;;11.07;100.00
47530;BME280;33272;51.922;7.730;2023-05-29T03:32:28;145253.66;;;11.10;100.00
47530;BME280;33272;51.922;7.730;2023-05-29T03:34:55;145266.31;;;11.16;100.00
47530;BME280;33272;51.922;7.730;2023-05-29T03:37:23;145277.75;;;11.20;100.00
47530;BME280;33272;51.922;7.730;2023-05-29T03:39:50;145290.41;;;11.25;100.00
47530;BME280;33272;51.922;7.730;2023-05-29T03:42:18;145301.84;;;11.30;100.00
47530;BME280;33272;51.922;7.730;2023-05-29T03:44:45;145309.47;;;11.33;100.00
47530;BME280;33272;51.922;7.730;2023-05-29T03:47:12;145315.81;;;11.35;100.00
47530;BME280;33272;51.922;7.730;2023-05-29T03:49:39;145325.94;;;11.40;100.00
47530;BME280;33272;51.922;7.730;2023-05-29T03:52:06;145336.06;;;11.44;100.00
47530;BME280;33272;51.922;7.730;2023-05-29T03:54:33;145343.69;;;11.47;100.00
47530;BME280;33272;51.922;7.730;2023-05-29T03:57:00;145338.63;;;11.45;100.00
47530;BME280;33272;51.922;7.730;2023-05-29T03:59:29;145344.94;;;11.47;100.00
47530;BME280;33272;51.922;7.730;2023-05-29T04:01:56;145355.13;;;11.51;100.00
47530;BME280;33272;51.922;7.730;2023-05-29T04:04:23;145352.56;;;11.50;100.00
47530;BME280;33272;51.922;7.730;2023-05-29T04:06:50;145364.00;;;11.55;100.00
47530;BME280;33272;51.922;7.730;2023-05-29T04:09:17;145375.38;;;11.59;100.00
47530;BME280;33272;51.922;7.730;2023-05-29T04:11:44;145375.38;;;11.59;100.00
47530;BME280;33272;51.922;7.730;2023-05-29T04:14:11;145377.97;;;11.60;100.00
47530;BME280;33272;51.922;7.730;2023-05-29T04:16:40;145386.84;;;11.64;100.00
47530;BME280;33272;51.922;7.730;2023-05-29T04:19:07;145391.88;;;11.66;100.00
47530;BME280;33272;51.922;7.730;2023-05-29T04:21:34;145399.50;;;11.69;100.00
47530;BME280;33272;51.922;7.730;2023-05-29T04:24:01;145409.69;;;11.73;100.00
47530;BME280;33272;51.922;7.730;2023-05-29T04:26:28;145421.06;;;11.78;100.00
47530;BME280;33272;51.922;7.730;2023-05-29T04:28:55;145436.31;;;11.84;100.00
47530;BME280;33272;51.922;7.730;2023-05-29T04:31:23;145450.31;;;11.90;100.00
47530;BME280;33272;51.922;7.730;2023-05-29T04:33:53;145465.53;;;11.96;100.00
47530;BME280;33272;51.922;7.730;2023-05-29T04:36:22;145473.16;;;11.99;100.00
47530;BME280;33272;51.922;7.730;2023-05-29T04:38:52;145485.81;;;12.04;100.00
47530;BME280;33272;51.922;7.730;2023-05-29T04:41:19;145502.34;;;12.11;100.00
47530;BME280;33272;51.922;7.730;2023-05-29T04:43:49;145515.00;;;12.16;100.00
47530;BME280;33272;51.922;7.730;2023-05-29T04:46:17;145531.50;;;12.22;100.00
47530;BME280;33272;51.922;7.730;2023-05-29T04:48:44;145549.31;;;12.29;100.00
47530;BME280;33272;51.922;7.730;2023-05-29T04:51:13;145560.72;;;12.34;100.00
47530;BME280;33272;51.922;7.730;2023-05-29T04:53:40;145569.59;;;12.38;100.00
47530;BME280;33272;51.922;7.730;2023-05-29T04:56:08;145572.13;;;12.39;100.00
47530;BME280;33272;51.922;7.730;2023-05-29T04:58:35;145575.94;;;12.40;100.00
47530;BME280;33272;51.922;7.730;2023-05-29T05:01:02;145586.09;;;12.44;100.00
47530;BME280;33272;51.922;7.730;2023-05-29T05:03:29;145602.59;;;12.51;100.00
47530;BME280;33272;51.922;7.730;2023-05-29T05:05:59;145626.72;;;12.61;100.00
47530;BME280;33272;51.922;7.730;2023-05-29T05:08:29;145662.28;;;12.75;100.00
47530;BME280;33272;51.922;7.730;2023-05-29T05:10:56;145685.13;;;12.84;100.00
47530;BME280;33272;51.922;7.730;2023-05-29T05:13:24;145695.28;;;12.88;100.00
47530;BME280;33272;51.922;7.730;2023-05-29T05:15:51;145701.63;;;12.91;100.00
47530;BME280;33272;51.922;7.730;2023-05-29T05:18:18;145704.16;;;12.92;99.76
47530;BME280;33272;51.922;7.730;2023-05-29T05:20:45;145694.03;;;12.88;99.31
47530;BME280;33272;51.922;7.730;2023-05-29T05:23:12;145697.84;;;12.89;99.03
47530;BME280;33272;51.922;7.730;2023-05-29T05:25:41;145709.25;;;12.94;99.31
47530;BME280;33272;51.922;7.730;2023-05-29T05:28:08;145728.28;;;13.02;98.86
47530;BME280;33272;51.922;7.730;2023-05-29T05:30:36;145749.88;;;13.10;99.09
47530;BME280;33272;51.922;7.730;2023-05-29T05:33:03;145775.28;;;13.20;97.92
47530;BME280;33272;51.922;7.730;2023-05-29T05:35:30;145794.41;;;13.28;97.60
47530;BME280;33272;51.922;7.730;2023-05-29T05:37:57;145843.94;;;13.48;97.42
47530;BME280;33272;51.922;7.730;2023-05-29T05:40:25;145971.00;;;13.99;97.74
47530;BME280;33272;51.922;7.730;2023-05-29T05:42:54;146127.44;;;14.62;94.71
47530;BME280;33272;51.922;7.730;2023-05-29T05:45:21;146259.72;;;15.15;93.08
47530;BME280;33272;51.922;7.730;2023-05-29T05:47:48;146388.31;;;15.67;90.94
47530;BME280;33272;51.922;7.730;2023-05-29T05:50:15;146500.31;;;16.12;88.86
47530;BME280;33272;51.922;7.730;2023-05-29T05:52:42;146555.06;;;16.34;87.00
47530;BME280;33272;51.922;7.730;2023-05-29T05:55:09;146607.25;;;16.55;86.00
47530;BME280;33272;51.922;7.730;2023-05-29T05:57:36;146659.53;;;16.76;84.18
47530;BME280;33272;51.922;7.730;2023-05-29T06:00:06;146696.47;;;16.90;83.07
47530;BME280;33272;51.922;7.730;2023-05-29T06:02:36;146724.47;;;17.02;82.24
47530;BME280;33272;51.922;7.730;2023-05-29T06:05:04;146762.72;;;17.17;81.72
47530;BME280;33272;51.922;7.730;2023-05-29T06:07:33;146818.78;;;17.40;80.15
47530;BME280;33272;51.922;7.730;2023-05-29T06:10:00;146885.06;;;17.66;79.07
47530;BME280;33272;51.922;7.730;2023-05-29T06:12:27;146943.75;;;17.90;78.42
47530;BME280;33272;51.922;7.730;2023-05-29T06:14:54;146953.97;;;17.94;77.13
47530;BME280;33272;51.922;7.730;2023-05-29T06:17:23;146948.88;;;17.92;76.55
47530;BME280;33272;51.922;7.730;2023-05-29T06:19:50;146900.38;;;17.72;76.02
47530;BME280;33272;51.922;7.730;2023-05-29T06:22:18;146919.53;;;17.80;75.95
47530;BME280;33272;51.922;7.730;2023-05-29T06:24:45;146920.78;;;17.80;75.65
47530;BME280;33272;51.922;7.730;2023-05-29T06:27:12;146920.78;;;17.80;74.85
47530;BME280;33272;51.922;7.730;2023-05-29T06:29:39;146939.94;;;17.88;74.22
47530;BME280;33272;51.922;7.730;2023-05-29T06:32:06;146979.47;;;18.04;73.42
47530;BME280;33272;51.922;7.730;2023-05-29T06:34:34;146987.13;;;18.07;72.65
47530;BME280;33272;51.922;7.730;2023-05-29T06:37:01;146983.25;;;18.05;72.52
47530;BME280;33272;51.922;7.730;2023-05-29T06:39:28;146970.53;;;18.00;71.99
47530;BME280;33272;51.922;7.730;2023-05-29T06:41:55;146943.75;;;17.90;71.57
47530;BME280;33272;51.922;7.730;2023-05-29T06:44:22;146945.00;;;17.90;71.27
47530;BME280;33272;51.922;7.730;2023-05-29T06:46:49;146985.84;;;18.06;70.77
47530;BME280;33272;51.922;7.730;2023-05-29T06:49:16;147026.66;;;18.23;69.56
47530;BME280;33272;51.922;7.730;2023-05-29T06:51:44;147034.31;;;18.26;69.15
47530;BME280;33272;51.922;7.730;2023-05-29T06:54:11;147035.56;;;18.26;68.96
47530;BME280;33272;51.922;7.730;2023-05-29T06:56:39;147059.78;;;18.36;68.56
47530;BME280;33272;51.922;7.730;2023-05-29T06:59:07;147050.88;;;18.33;68.07
47530;BME280;33272;51.922;7.730;2023-05-29T07:01:34;147061.06;;;18.37;67.75
47530;BME280;33272;51.922;7.730;2023-05-29T07:04:01;147049.59;;;18.32;67.64
47530;BME280;33272;51.922;7.730;2023-05-29T07:06:28;147003.69;;;18.14;67.55
47530;BME280;33272;51.922;7.730;2023-05-29T07:08:56;146973.09;;;18.01;67.58
47530;BME280;33272;51.922;7.730;2023-05-29T07:11:23;146947.59;;;17.91;67.72
47530;BME280;33272;51.922;7.730;2023-05-29T07:13:51;146931.03;;;17.85;67.50
47530;BME280;33272;51.922;7.730;2023-05-29T07:16:18;146931.03;;;17.85;67.65
47530;BME280;33272;51.922;7.730;2023-05-29T07:18:45;146937.34;;;17.87;67.81
47530;BME280;33272;51.922;7.730;2023-05-29T07:21:12;146896.53;;;17.71;67.36
47530;BME280;33272;51.922;7.730;2023-05-29T07:23:39;146844.31;;;17.50;67.86
47530;BME280;33272;51.922;7.730;2023-05-29T07:26:08;146853.22;;;17.53;68.26
47530;BME280;33272;51.922;7.730;2023-05-29T07:28:35;146869.78;;;17.60;67.99
47530;BME280;33272;51.922;7.730;2023-05-29T07:31:02;146853.22;;;17.53;67.73
47530;BME280;33272;51.922;7.730;2023-05-29T07:33:29;146820.03;;;17.40;67.79
47530;BME280;33272;51.922;7.730;2023-05-29T07:35:56;146816.25;;;17.38;67.99
47530;BME280;33272;51.922;7.730;2023-05-29T07:38:23;146766.56;;;17.19;67.68
47530;BME280;33272;51.922;7.730;2023-05-29T07:40:50;146744.88;;;17.10;68.27
47530;BME280;33272;51.922;7.730;2023-05-29T07:43:19;146769.09;;;17.20;68.18
47530;BME280;33272;51.922;7.730;2023-05-29T07:45:46;146763.97;;;17.18;67.91
47530;BME280;33272;51.922;7.730;2023-05-29T07:48:13;146788.19;;;17.27;68.03
47530;BME280;33272;51.922;7.730;2023-05-29T07:50:40;146795.84;;;17.30;67.13
47530;BME280;33272;51.922;7.730;2023-05-29T07:53:07;146789.50;;;17.28;67.20
47530;BME280;33272;51.922;7.730;2023-05-29T07:55:34;146798.41;;;17.31;67.37
47530;BME280;33272;51.922;7.730;2023-05-29T07:58:01;146807.31;;;17.35;66.75
47530;BME280;33272;51.922;7.730;2023-05-29T08:00:30;146806.06;;;17.34;66.60
47530;BME280;33272;51.922;7.730;2023-05-29T08:02:56;146798.41;;;17.31;66.53
47530;BME280;33272;51.922;7.730;2023-05-29T08:05:24;146767.81;;;17.19;66.61
47530;BME280;33272;51.922;7.730;2023-05-29T08:07:51;146757.66;;;17.15;67.10
47530;BME280;33272;51.922;7.730;2023-05-29T08:10:18;146752.53;;;17.13;66.97
47530;BME280;33272;51.922;7.730;2023-05-29T08:12:45;146763.97;;;17.18;66.67
47530;BME280;33272;51.922;7.730;2023-05-29T08:15:12;146770.34;;;17.20;67.19
47530;BME280;33272;51.922;7.730;2023-05-29T08:17:40;146788.19;;;17.27;66.47
47530;BME280;33272;51.922;7.730;2023-05-29T08:20:08;146804.78;;;17.34;66.53
47530;BME280;33272;51.922;7.730;2023-05-29T08:22:36;146835.34;;;17.46;66.80
47530;BME280;33272;51.922;7.730;2023-05-29T08:25:04;146874.84;;;17.62;66.40
47530;BME280;33272;51.922;7.730;2023-05-29T08:27:31;146913.16;;;17.77;66.09
47530;BME280;33272;51.922;7.730;2023-05-29T08:29:58;146950.13;;;17.92;66.44
47530;BME280;33272;51.922;7.730;2023-05-29T08:32:25;146982.00;;;18.05;65.76
47530;BME280;33272;51.922;7.730;2023-05-29T08:34:53;147015.16;;;18.18;65.59
47530;BME280;33272;51.922;7.730;2023-05-29T08:37:20;147040.69;;;18.28;65.59
47530;BME280;33272;51.922;7.730;2023-05-29T08:39:47;147062.31;;;18.37;65.12
47530;BME280;33272;51.922;7.730;2023-05-29T08:42:21;147090.41;;;18.48;64.53
47530;BME280;33272;51.922;7.730;2023-05-29T08:44:52;147123.56;;;18.62;64.81
47530;BME280;33272;51.922;7.730;2023-05-29T08:47:26;147138.88;;;18.68;64.13
47530;BME280;33272;51.922;7.730;2023-05-29T08:49:56;147131.22;;;18.65;63.52
47530;BME280;33272;51.922;7.730;2023-05-29T08:52:24;147118.44;;;18.60;64.54
47530;BME280;33272;51.922;7.730;2023-05-29T08:54:53;147122.28;;;18.61;63.88
47530;BME280;33272;51.922;7.730;2023-05-29T08:57:20;147122.28;;;18.61;64.38
47530;BME280;33272;51.922;7.730;2023-05-29T08:59:51;147141.41;;;18.69;64.06
47530;BME280;33272;51.922;7.730;2023-05-29T09:02:18;147152.97;;;18.73;63.78
47530;BME280;33272;51.922;7.730;2023-05-29T09:04:46;147149.06;;;18.72;63.54
47530;BME280;33272;51.922;7.730;2023-05-29T09:07:16;147159.34;;;18.76;63.36
47530;BME280;33272;51.922;7.730;2023-05-29T09:09:44;147155.50;;;18.74;63.67
47530;BME280;33272;51.922;7.730;2023-05-29T09:12:12;147127.41;;;18.63;63.65
47530;BME280;33272;51.922;7.730;2023-05-29T09:14:41;147145.25;;;18.70;63.81
47530;BME280;33272;51.922;7.730;2023-05-29T09:17:11;147154.22;;;18.74;63.59
47530;BME280;33272;51.922;7.730;2023-05-29T09:19:38;147184.84;;;18.86;63.49
47530;BME280;33272;51.922;7.730;2023-05-29T09:22:08;147201.44;;;18.93;62.62
47530;BME280;33272;51.922;7.730;2023-05-29T09:24:38;147196.31;;;18.91;62.05
47530;BME280;33272;51.922;7.730;2023-05-29T09:27:05;147186.13;;;18.87;62.67
47530;BME280;33272;51.922;7.730;2023-05-29T09:29:35;147214.22;;;18.98;62.60
47530;BME280;33272;51.922;7.730;2023-05-29T09:32:07;147233.34;;;19.06;62.03
47530;BME280;33272;51.922;7.730;2023-05-29T09:34:35;147260.13;;;19.16;61.89
47530;BME280;33272;51.922;7.730;2023-05-29T09:37:04;147248.66;;;19.12;61.73
47530;BME280;33272;51.922;7.730;2023-05-29T09:39:45;147269.09;;;19.20;61.30
47530;BME280;33272;51.922;7.730;2023-05-29T09:42:13;147301.00;;;19.33;61.75
47530;BME280;33272;51.922;7.730;2023-05-29T09:44:42;147309.91;;;19.36;60.97
47530;BME280;33272;51.922;7.730;2023-05-29T09:47:11;147326.50;;;19.43;61.34
47530;BME280;33272;51.922;7.730;2023-05-29T09:49:41;147341.81;;;19.49;61.14
47530;BME280;33272;51.922;7.730;2023-05-29T09:52:10;147375.00;;;19.62;60.66
47530;BME280;33272;51.922;7.730;2023-05-29T09:54:41;147398.03;;;19.72;60.41
47530;BME280;33272;51.922;7.730;2023-05-29T09:57:13;147427.41;;;19.83;60.45
47530;BME280;33272;51.922;7.730;2023-05-29T09:59:42;147463.13;;;19.98;59.40
47530;BME280;33272;51.922;7.730;2023-05-29T10:02:11;147451.66;;;19.93;59.41
47530;BME280;33272;51.922;7.730;2023-05-29T10:04:39;147441.41;;;19.89;59.29
47530;BME280;33272;51.922;7.730;2023-05-29T10:07:12;147422.28;;;19.81;58.51
47530;BME280;33272;51.922;7.730;2023-05-29T10:09:44;147436.34;;;19.87;59.30
47530;BME280;33272;51.922;7.730;2023-05-29T10:12:13;147464.41;;;19.98;58.45
47530;BME280;33272;51.922;7.730;2023-05-29T10:14:43;147509.13;;;20.16;58.73
47530;BME280;33272;51.922;7.730;2023-05-29T10:17:12;147552.56;;;20.33;58.47
47530;BME280;33272;51.922;7.730;2023-05-29T10:19:42;147611.34;;;20.57;57.98
47530;BME280;33272;51.922;7.730;2023-05-29T10:22:11;147685.44;;;20.87;57.91
47530;BME280;33272;51.922;7.730;2023-05-29T10:24:39;147730.16;;;21.04;56.86
47530;BME280;33272;51.922;7.730;2023-05-29T10:27:07;147742.97;;;21.10;56.24
47530;BME280;33272;51.922;7.730;2023-05-29T10:29:39;147716.09;;;20.99;55.68
47530;BME280;33272;51.922;7.730;2023-05-29T10:32:20;147707.16;;;20.95;53.80
47530;BME280;33272;51.922;7.730;2023-05-29T10:34:56;147758.31;;;21.16;54.76
47530;BME280;33272;51.922;7.730;2023-05-29T10:37:34;147777.47;;;21.23;55.27
47530;BME280;33272;51.922;7.730;2023-05-29T10:40:07;147796.59;;;21.31;55.12
47530;BME280;33272;51.922;7.730;2023-05-29T10:42:43;147813.31;;;21.38;55.07
47530;BME280;33272;51.922;7.730;2023-05-29T10:45:48;147799.19;;;21.32;53.15
47530;BME280;33272;51.922;7.730;2023-05-29T10:48:41;147804.28;;;21.34;54.31
47530;BME280;33272;51.922;7.730;2023-05-29T10:51:26;147812.00;;;21.37;54.94
47530;BME280;33272;51.922;7.730;2023-05-29T10:53:53;147821.00;;;21.41;54.75
47530;BME280;33272;51.922;7.730;2023-05-29T10:56:23;147832.47;;;21.45;55.09
47530;BME280;33272;51.922;7.730;2023-05-29T10:58:58;147806.91;;;21.35;54.90
47530;BME280;33272;51.922;7.730;2023-05-29T11:01:28;147789.00;;;21.28;54.64
47530;BME280;33272;51.922;7.730;2023-05-29T11:04:25;147711.03;;;20.97;54.58
47530;BME280;33272;51.922;7.730;2023-05-29T11:06:53;147726.38;;;21.03;55.62
47530;BME280;33272;51.922;7.730;2023-05-29T11:09:31;147704.63;;;20.94;55.30
47530;BME280;33272;51.922;7.730;2023-05-29T11:12:20;147744.25;;;21.10;55.46
47530;BME280;33272;51.922;7.730;2023-05-29T11:15:03;147765.97;;;21.19;55.39
47530;BME280;33272;51.922;7.730;2023-05-29T11:17:43;147760.84;;;21.17;54.91
47530;BME280;33272;51.922;7.730;2023-05-29T11:20:26;147740.38;;;21.09;54.33
47530;BME280;33272;51.922;7.730;2023-05-29T11:23:02;147737.84;;;21.08;55.06
47530;BME280;33272;51.922;7.730;2023-05-29T11:25:32;147742.97;;;21.10;54.99
47530;BME280;33272;51.922;7.730;2023-05-29T11:28:00;147749.31;;;21.12;54.81
47530;BME280;33272;51.922;7.730;2023-05-29T11:30:29;147732.72;;;21.05;54.53
47530;BME280;33272;51.922;7.730;2023-05-29T11:33:01;147681.63;;;20.85;54.99
47530;BME280;33272;51.922;7.730;2023-05-29T11:35:34;147702.09;;;20.93;55.20
47530;BME280;33272;51.922;7.730;2023-05-29T11:38:04;147719.97;;;21.00;55.20
47530;BME280;33272;51.922;7.730;2023-05-29T11:40:36;147735.31;;;21.06;53.99
47530;BME280;33272;51.922;7.730;2023-05-29T11:43:03;147735.31;;;21.06;54.50
47530;BME280;33272;51.922;7.730;2023-05-29T11:45:32;147709.72;;;20.96;54.61
47530;BME280;33272;51.922;7.730;2023-05-29T11:48:04;147723.78;;;21.02;54.46
47530;BME280;33272;51.922;7.730;2023-05-29T11:50:32;147719.97;;;21.00;54.47
47530;BME280;33272;51.922;7.730;2023-05-29T11:53:00;147762.13;;;21.17;54.43
47530;BME280;33272;51.922;7.730;2023-05-29T11:55:27;147792.78;;;21.29;53.88
47530;BME280;33272;51.922;7.730;2023-05-29T11:57:58;147804.28;;;21.34;53.56
47530;BME280;33272;51.922;7.730;2023-05-29T12:00:27;147800.47;;;21.33;53.65
47530;BME280;33272;51.922;7.730;2023-05-29T12:02:58;147805.59;;;21.35;53.89
47530;BME280;33272;51.922;7.730;2023-05-29T12:05:31;147805.59;;;21.35;53.63
47530;BME280;33272;51.922;7.730;2023-05-29T12:07:58;147823.53;;;21.42;53.16
47530;BME280;33272;51.922;7.730;2023-05-29T12:10:28;147837.59;;;21.47;53.46
47530;BME280;33272;51.922;7.730;2023-05-29T12:12:57;147868.28;;;21.60;53.07
47530;BME280;33272;51.922;7.730;2023-05-29T12:15:24;147900.25;;;21.72;52.78
47530;BME280;33272;51.922;7.730;2023-05-29T12:17:53;147900.25;;;21.72;52.57
47530;BME280;33272;51.922;7.730;2023-05-29T12:20:23;147911.72;;;21.77;52.90
47530;BME280;33272;51.922;7.730;2023-05-29T12:22:59;147932.22;;;21.85;52.59
47530;BME280;33272;51.922;7.730;2023-05-29T12:25:27;147915.59;;;21.79;53.09
47530;BME280;33272;51.922;7.730;2023-05-29T12:27:56;147943.69;;;21.90;51.95
47530;BME280;33272;51.922;7.730;2023-05-29T12:30:24;147942.44;;;21.89;52.22
47530;BME280;33272;51.922;7.730;2023-05-29T12:32:52;147950.09;;;21.92;52.21
47530;BME280;33272;51.922;7.730;2023-05-29T12:35:20;147964.19;;;21.98;51.88
47530;BME280;33272;51.922;7.730;2023-05-29T12:37:48;147991.00;;;22.09;52.48
47530;BME280;33272;51.922;7.730;2023-05-29T12:40:22;147993.56;;;22.10;51.55
47530;BME280;33272;51.922;7.730;2023-05-29T12:42:55;147960.31;;;21.96;51.87
47530;BME280;33272;51.922;7.730;2023-05-29T12:45:24;148007.63;;;22.15;52.04
47530;BME280;33272;51.922;7.730;2023-05-29T12:47:54;148046.06;;;22.31;51.66
47530;BME280;33272;51.922;7.730;2023-05-29T12:50:24;148046.06;;;22.31;51.56
47530;BME280;33272;51.922;7.730;2023-05-29T12:52:59;148055.00;;;22.34;51.24
47530;BME280;33272;51.922;7.730;2023-05-29T12:55:30;148093.38;;;22.50;51.37